Time;durP1;ratioP1;P1;durP2;ratioP2;P2;SDS_P1;SDS_P2;PMS_P1;PMS_P2;Temp;Humidity;BMP_temperature;BMP_pressure;BME280_temperature;BME280_humidity;BME280_pressure;Samples;Min_cycle;Max_cycle;Signal;HPM_P1;HPM_P2
2022/01/10 00:03:54;;;;;;;76.65;27.73;;;;;;;0.18;83.36;98488.00;8468530;27;20054;-70
2022/01/10 00:07:55;;;;;;;71.57;25.90;;;;;;;0.21;83.53;98493.59;8428070;27;20061;-70
2022/01/10 00:11:56;;;;;;;84.97;29.40;;;;;;;0.12;83.55;98500.44;8476325;27;20510;-69
2022/01/10 00:15:57;;;;;;;90.28;31.02;;;;;;;0.12;83.61;98505.75;8490289;27;20051;-70
2022/01/10 00:19:58;;;;;;;81.43;30.35;;;;;;;0.15;83.51;98521.19;8480671;27;20051;-70
2022/01/10 00:23:58;;;;;;;79.75;29.75;;;;;;;0.17;83.56;98521.72;8478031;27;20100;-70
2022/01/10 00:27:59;;;;;;;71.82;29.15;;;;;;;0.23;83.28;98527.88;8486255;27;20047;-69
2022/01/10 00:32:01;;;;;;;74.88;29.58;;;;;;;0.24;83.36;98524.97;8491715;27;20135;-70
2022/01/10 00:36:03;;;;;;;77.15;29.33;;;;;;;0.26;83.25;98533.47;8476862;27;20043;-69
2022/01/10 00:40:04;;;;;;;81.40;30.40;;;;;;;0.25;83.37;98537.19;8445647;28;20058;-70
2022/01/10 00:44:05;;;;;;;79.72;29.67;;;;;;;0.22;83.36;98537.69;8444923;27;20039;-70
2022/01/10 00:48:07;;;;;;;74.55;29.40;;;;;;;0.26;83.12;98544.09;8477323;27;20163;-70
2022/01/10 00:52:08;;;;;;;79.30;28.63;;;;;;;0.26;83.66;98549.41;8476303;27;20175;-70
2022/01/10 00:56:09;;;;;;;71.47;29.60;;;;;;;0.16;83.64;98554.63;8464373;27;20183;-69
2022/01/10 01:00:12;;;;;;;77.20;30.83;;;;;;;0.19;83.65;98564.75;8476837;27;20050;-69
2022/01/10 01:04:14;;;;;;;77.53;31.17;;;;;;;0.24;83.77;98562.13;8472444;27;20059;-69
2022/01/10 01:08:15;;;;;;;80.15;29.23;;;;;;;0.32;83.57;98572.28;8493089;27;20387;-70
2022/01/10 01:12:31;;;;;;;78.95;30.83;;;;;;;0.34;83.83;98572.84;8451477;27;20052;-69
2022/01/10 01:24:40;;;;;;;77.43;29.58;;;;;;;0.38;83.46;98589.84;8473705;27;20079;-70
2022/01/10 01:28:41;;;;;;;67.07;28.08;;;;;;;0.38;83.73;98595.16;8482602;27;20088;-70
2022/01/10 01:32:41;;;;;;;74.03;28.00;;;;;;;0.39;83.65;98594.13;8475808;27;20050;-70
2022/01/10 01:36:46;;;;;;;76.30;28.95;;;;;;;0.42;83.71;98606.09;8476786;27;20467;-69
2022/01/10 01:41:09;;;;;;;73.78;30.45;;;;;;;0.33;83.61;98608.41;8455761;27;20054;-70
2022/01/10 01:45:12;;;;;;;74.35;28.35;;;;;;;0.39;83.80;98614.56;8486792;27;20054;-69
2022/01/10 01:49:13;;;;;;;103.70;35.00;;;;;;;0.30;84.27;98608.13;8486692;27;20051;-70
2022/01/10 01:53:14;;;;;;;79.30;31.98;;;;;;;0.33;83.83;98613.72;8482164;27;20250;-70
2022/01/10 01:57:15;;;;;;;79.70;31.08;;;;;;;0.34;83.98;98615.34;8477280;27;20539;-70
2022/01/10 02:01:16;;;;;;;83.80;30.15;;;;;;;0.30;84.07;98630.19;8484554;27;20150;-70
2022/01/10 02:05:17;;;;;;;76.03;30.40;;;;;;;0.32;83.96;98638.69;8475507;27;20051;-70
2022/01/10 02:14:33;;;;;;;76.55;29.40;;;;;;;0.33;83.79;98656.22;8442768;28;20067;-70
2022/01/10 02:18:35;;;;;;;81.22;30.85;;;;;;;0.26;84.14;98660.97;8422882;28;20495;-69
2022/01/10 02:22:38;;;;;;;84.88;31.75;;;;;;;0.27;84.39;98667.03;8458913;28;20100;-70
2022/01/10 02:26:39;;;;;;;80.05;30.45;;;;;;;0.26;84.01;98663.63;8475345;28;20387;-70
2022/01/10 02:30:40;;;;;;;77.63;30.63;;;;;;;0.27;84.17;98678.47;8482327;28;20065;-70
2022/01/10 02:34:41;;;;;;;80.43;30.27;;;;;;;0.29;83.95;98687.00;8455530;28;20048;-71
2022/01/10 02:38:48;;;;;;;79.22;30.10;;;;;;;0.31;83.87;98678.78;8478602;28;20047;-70
2022/01/10 02:42:50;;;;;;;80.30;29.88;;;;;;;0.23;84.47;98682.69;8431390;28;20051;-70
2022/01/10 02:46:51;;;;;;;72.10;29.08;;;;;;;0.26;84.58;98687.53;8450287;28;20044;-70
2022/01/10 02:50:52;;;;;;;76.40;29.50;;;;;;;0.25;84.17;98691.22;8469200;28;20044;-69
2022/01/10 02:54:53;;;;;;;73.78;29.30;;;;;;;0.28;84.25;98690.72;8470256;28;20085;-70
2022/01/10 02:58:54;;;;;;;78.38;30.05;;;;;;;0.29;84.41;98700.28;8471701;28;20047;-71
2022/01/10 03:02:55;;;;;;;83.30;29.55;;;;;;;0.19;84.71;98702.84;8460135;28;20407;-69
2022/01/10 03:06:58;;;;;;;73.60;29.60;;;;;;;0.14;84.65;98705.44;8460764;28;20065;-70
2022/01/10 03:10:59;;;;;;;78.75;30.17;;;;;;;0.18;84.79;98717.16;8476194;28;20066;-70
2022/01/10 03:15:01;;;;;;;73.22;29.02;;;;;;;0.19;84.86;98724.09;8440270;28;20058;-70
2022/01/10 03:19:02;;;;;;;68.47;26.80;;;;;;;0.20;84.57;98731.00;8416846;28;20044;-70
2022/01/10 03:23:03;;;;;;;81.75;30.40;;;;;;;0.25;84.71;98744.34;8438350;28;20051;-69
2022/01/10 03:27:04;;;;;;;77.25;29.88;;;;;;;0.30;84.67;98740.94;8452877;28;20131;-70
2022/01/10 03:31:05;;;;;;;82.15;27.98;;;;;;;0.32;84.47;98744.91;8422872;28;20062;-70
2022/01/10 03:35:06;;;;;;;71.32;29.08;;;;;;;0.33;84.72;98756.34;8452238;28;20136;-70
2022/01/10 03:39:07;;;;;;;68.90;28.05;;;;;;;0.33;84.98;98762.47;8417702;28;20040;-70
2022/01/10 03:43:08;;;;;;;81.60;30.10;;;;;;;0.34;84.58;98764.06;8459398;28;20048;-70
2022/01/10 03:47:10;;;;;;;78.50;28.85;;;;;;;0.34;84.84;98769.38;8461336;28;20055;-70
2022/01/10 03:51:11;;;;;;;77.80;29.05;;;;;;;0.33;84.58;98778.41;8410649;28;20392;-70
2022/01/10 03:55:12;;;;;;;76.07;30.85;;;;;;;0.33;84.92;98783.72;8425912;28;20036;-70
2022/01/10 03:59:13;;;;;;;78.32;30.33;;;;;;;0.34;84.92;98780.00;8426689;28;20134;-70
2022/01/10 04:03:13;;;;;;;78.43;31.17;;;;;;;0.33;84.74;98789.03;8417256;28;20102;-70
2022/01/10 04:07:16;;;;;;;74.68;29.98;;;;;;;0.33;85.16;98799.66;8418585;28;20136;-70
2022/01/10 04:11:17;;;;;;;75.00;28.45;;;;;;;0.34;85.21;98811.88;8386091;28;20050;-70
2022/01/10 04:15:18;;;;;;;69.70;29.00;;;;;;;0.34;85.20;98822.50;8425615;28;20074;-71
2022/01/10 04:19:19;;;;;;;72.85;28.70;;;;;;;0.32;85.11;98824.59;8426130;28;20044;-69
2022/01/10 04:23:20;;;;;;;76.18;28.77;;;;;;;0.32;84.92;98829.91;8476949;27;20055;-69
2022/01/10 04:27:21;;;;;;;70.30;27.27;;;;;;;0.33;84.94;98841.34;8481910;27;20040;-69
2022/01/10 04:31:22;;;;;;;80.00;29.17;;;;;;;0.31;85.06;98849.59;8487717;27;20141;-70
2022/01/10 04:35:24;;;;;;;70.75;27.13;;;;;;;0.31;85.13;98854.91;8471816;27;20042;-69
2022/01/10 04:39:25;;;;;;;77.10;30.55;;;;;;;0.31;85.29;98870.84;8490744;27;20047;-69
2022/01/10 04:43:26;;;;;;;72.63;28.88;;;;;;;0.33;85.10;98874.03;8483481;27;20081;-69
2022/01/10 04:47:27;;;;;;;72.15;28.63;;;;;;;0.34;85.21;98875.63;8464784;28;20102;-70
2022/01/10 04:51:29;;;;;;;80.63;30.23;;;;;;;0.36;84.84;98867.44;8483692;27;20044;-69
2022/01/10 04:55:29;;;;;;;78.25;30.55;;;;;;;0.36;85.52;98884.16;8469189;27;20467;-70
2022/01/10 04:59:30;;;;;;;79.68;27.17;;;;;;;0.35;85.28;98887.88;8468295;27;20047;-70
2022/01/10 05:03:31;;;;;;;71.40;29.05;;;;;;;0.31;85.30;98892.09;8481632;27;20048;-69
2022/01/10 05:07:32;;;;;;;72.18;28.60;;;;;;;0.28;85.56;98897.88;8468362;27;20046;-69
2022/01/10 05:11:35;;;;;;;72.80;28.20;;;;;;;0.24;85.65;98896.75;8482580;27;20096;-70
2022/01/10 05:15:36;;;;;;;97.75;34.13;;;;;;;0.24;85.78;98902.06;8484012;27;20054;-70
2022/01/10 05:19:37;;;;;;;81.43;29.95;;;;;;;0.20;85.82;98911.59;8478333;27;20048;-69
2022/01/10 05:23:38;;;;;;;81.45;30.60;;;;;;;0.19;85.85;98928.56;8470659;27;20558;-69
2022/01/10 05:27:39;;;;;;;108.38;37.25;;;;;;;0.14;85.73;98928.50;8466411;27;20057;-69
2022/01/10 05:31:39;;;;;;;97.68;32.83;;;;;;;0.05;86.03;98922.03;8478321;27;20057;-69
2022/01/10 05:35:40;;;;;;;124.65;42.05;;;;;;;-0.02;86.08;98945.28;8529965;27;20055;-69
2022/01/10 05:39:41;;;;;;;128.02;42.03;;;;;;;-0.09;85.92;98944.63;8530088;27;20061;-69
2022/01/10 05:43:43;;;;;;;142.05;45.13;;;;;;;-0.16;86.19;98949.31;8530912;27;20469;-69
2022/01/10 05:47:46;;;;;;;138.30;45.72;;;;;;;-0.25;86.15;98967.47;8530564;27;20058;-71
2022/01/10 05:51:46;;;;;;;155.40;48.03;;;;;;;-0.34;86.84;98968.13;8530434;27;20061;-69
2022/01/10 05:55:47;;;;;;;133.48;41.90;;;;;;;-0.42;86.79;98988.69;8530461;27;20066;-70
2022/01/10 05:59:48;;;;;;;99.50;35.13;;;;;;;-0.46;86.50;98998.19;8530300;27;20555;-69
2022/01/10 06:03:49;;;;;;;97.03;36.65;;;;;;;-0.51;86.98;99006.06;8522852;27;20138;-69
2022/01/10 06:07:49;;;;;;;95.53;32.33;;;;;;;-0.54;86.95;99011.06;8491527;27;20066;-69
2022/01/10 06:11:50;;;;;;;86.30;33.45;;;;;;;-0.56;86.67;99019.25;8408604;28;20131;-69
2022/01/10 06:15:51;;;;;;;73.72;29.35;;;;;;;-0.61;86.48;99021.00;8462206;28;20043;-69
2022/01/10 06:19:52;;;;;;;78.55;28.20;;;;;;;-0.68;86.99;99047.66;8461364;28;20101;-69
2022/01/10 06:23:53;;;;;;;84.50;29.40;;;;;;;-0.74;87.22;99043.28;8461818;28;20487;-69
2022/01/10 06:27:54;;;;;;;77.00;28.08;;;;;;;-0.77;86.78;99065.00;8461863;28;20178;-69
2022/01/10 06:31:55;;;;;;;71.43;27.17;;;;;;;-0.83;86.87;99076.53;8461642;28;20074;-71
2022/01/10 06:35:56;;;;;;;74.10;26.40;;;;;;;-0.82;87.08;99094.06;8461261;28;20048;-69
2022/01/10 06:39:56;;;;;;;75.57;27.98;;;;;;;-0.77;87.41;99096.81;8467320;28;20502;-69
2022/01/10 06:43:57;;;;;;;81.25;29.45;;;;;;;-0.69;86.92;99093.81;8493625;28;20055;-70
2022/01/10 06:47:58;;;;;;;84.03;30.67;;;;;;;-0.61;86.98;99117.28;8442098;28;20054;-71
2022/01/10 06:52:00;;;;;;;85.25;31.75;;;;;;;-0.52;86.66;99121.16;8499597;27;20053;-69
2022/01/10 06:56:01;;;;;;;88.72;30.45;;;;;;;-0.45;86.86;99137.75;8501672;27;20047;-70
2022/01/10 07:00:04;;;;;;;91.57;31.13;;;;;;;-0.38;86.93;99148.25;8483401;27;20122;-70
2022/01/10 07:04:05;;;;;;;128.10;36.97;;;;;;;-0.33;86.40;99160.78;8501263;27;20142;-70
2022/01/10 07:08:06;;;;;;;106.80;35.58;;;;;;;-0.23;86.32;99163.63;8501426;27;20057;-69
2022/01/10 07:12:07;;;;;;;87.13;30.33;;;;;;;-0.16;86.22;99177.59;8500870;27;20071;-70
2022/01/10 07:16:08;;;;;;;101.28;34.53;;;;;;;-0.10;86.37;99181.91;8448119;27;20047;-70
2022/01/10 07:20:09;;;;;;;78.57;28.88;;;;;;;-0.02;86.38;99184.19;8500600;27;20136;-69
2022/01/10 07:24:10;;;;;;;80.07;29.70;;;;;;;0.00;86.13;99198.06;8501092;27;20378;-68
2022/01/10 07:28:11;;;;;;;76.57;28.98;;;;;;;0.02;86.26;99211.88;8482572;27;20712;-68
2022/01/10 07:32:12;;;;;;;78.22;31.45;;;;;;;0.04;86.21;99209.00;8500673;27;20058;-70
2022/01/10 07:36:12;;;;;;;94.78;32.08;;;;;;;0.02;86.04;99227.81;8463981;27;20039;-69
2022/01/10 07:40:14;;;;;;;100.63;36.42;;;;;;;-0.05;85.94;99227.94;8500678;27;20538;-70
2022/01/10 07:44:14;;;;;;;94.55;34.90;;;;;;;-0.10;86.11;99235.00;8500301;27;20107;-69
2022/01/10 07:48:17;;;;;;;103.60;36.97;;;;;;;-0.16;86.53;99243.94;8500103;27;20043;-69
2022/01/10 07:52:18;;;;;;;110.80;36.45;;;;;;;-0.20;86.27;99256.03;8499924;27;20054;-70
2022/01/10 07:56:19;;;;;;;97.13;34.13;;;;;;;-0.23;86.40;99251.22;8497963;27;20043;-69
2022/01/10 08:00:19;;;;;;;96.50;35.40;;;;;;;-0.22;86.21;99258.16;8499107;27;20530;-69
2022/01/10 08:04:20;;;;;;;114.10;38.28;;;;;;;-0.18;86.17;99269.91;8499260;27;20051;-69
2022/01/10 08:08:21;;;;;;;126.65;43.05;;;;;;;-0.16;86.23;99283.75;8499264;27;20082;-69
2022/01/10 08:12:22;;;;;;;142.93;43.08;;;;;;;-0.16;86.30;99284.53;8498874;27;20063;-69
2022/01/10 08:16:23;;;;;;;147.80;45.08;;;;;;;-0.11;86.11;99302.44;8499146;27;20130;-69
2022/01/10 08:20:24;;;;;;;103.47;36.92;;;;;;;-0.07;85.91;99311.53;8498929;27;20070;-69
2022/01/10 08:24:25;;;;;;;100.22;37.83;;;;;;;-0.04;85.30;99313.72;8480626;27;20122;-69
2022/01/10 08:28:26;;;;;;;110.22;39.03;;;;;;;0.01;85.30;99316.47;8498520;27;20498;-68
2022/01/10 08:32:26;;;;;;;106.55;38.35;;;;;;;0.09;85.32;99318.78;8498531;27;20058;-69
2022/01/10 08:36:28;;;;;;;97.53;37.38;;;;;;;0.15;85.10;99328.47;8498140;27;20498;-69
2022/01/10 08:40:28;;;;;;;110.13;38.13;;;;;;;0.23;84.60;99346.66;8498322;27;20047;-69
2022/01/10 08:44:30;;;;;;;111.75;39.83;;;;;;;0.29;84.80;99340.41;8498031;27;20047;-69
2022/01/10 08:48:30;;;;;;;112.72;38.75;;;;;;;0.36;84.53;99354.38;8479798;27;20058;-69
2022/01/10 08:52:31;;;;;;;106.03;38.08;;;;;;;0.48;84.23;99364.16;8485440;27;20255;-69
2022/01/10 08:56:32;;;;;;;117.13;40.70;;;;;;;0.58;83.90;99367.00;8474718;27;20051;-68
2022/01/10 09:00:33;;;;;;;111.32;39.33;;;;;;;0.66;83.74;99378.06;8497706;27;20049;-70
2022/01/10 09:04:34;;;;;;;112.97;40.60;;;;;;;0.75;83.01;99381.13;8497269;27;20047;-69
2022/01/10 09:08:38;;;;;;;127.70;41.45;;;;;;;0.81;82.62;99385.50;8497185;27;20099;-69
2022/01/10 09:12:39;;;;;;;110.40;39.83;;;;;;;0.89;82.35;99393.09;8477988;27;20122;-69
2022/01/10 09:16:42;;;;;;;122.32;38.90;;;;;;;1.00;82.67;99389.59;8497075;27;20047;-70
2022/01/10 09:20:44;;;;;;;109.70;39.13;;;;;;;1.13;82.18;99399.91;8478862;27;20047;-70
2022/01/10 09:24:46;;;;;;;103.75;36.03;;;;;;;1.24;80.65;99400.88;8496949;27;20051;-69
2022/01/10 09:28:48;;;;;;;98.72;35.70;;;;;;;1.30;79.80;99409.75;8496690;27;20055;-70
2022/01/10 09:32:49;;;;;;;98.43;32.95;;;;;;;1.35;79.13;99407.19;8496762;27;20131;-70
2022/01/10 09:36:50;;;;;;;89.85;33.03;;;;;;;1.41;79.05;99411.53;8496316;27;20063;-70
2022/01/10 09:40:50;;;;;;;104.13;33.22;;;;;;;1.51;78.89;99427.66;8496340;27;20058;-70
2022/01/10 09:44:52;;;;;;;85.75;31.13;;;;;;;1.61;77.86;99423.31;8477844;27;20154;-69
2022/01/10 09:48:53;;;;;;;94.13;31.02;;;;;;;1.70;77.44;99431.69;8496289;27;20510;-69
2022/01/10 09:52:54;;;;;;;106.88;37.58;;;;;;;1.78;77.36;99444.63;8496283;27;20043;-70
2022/01/10 09:56:55;;;;;;;96.72;33.15;;;;;;;1.82;76.53;99451.06;8495949;27;20043;-70
2022/01/10 10:00:58;;;;;;;83.32;31.52;;;;;;;1.86;76.29;99454.84;8496138;27;20095;-70
2022/01/10 10:05:06;;;;;;;96.22;33.70;;;;;;;1.96;76.32;99473.63;8495747;27;20058;-69
2022/01/10 10:09:08;;;;;;;104.63;36.65;;;;;;;2.04;76.07;99464.44;8495620;27;20417;-70
2022/01/10 10:13:10;;;;;;;101.43;36.55;;;;;;;2.13;76.14;99474.44;8477427;28;20609;-69
2022/01/10 10:17:17;;;;;;;113.10;39.92;;;;;;;2.18;76.12;99491.53;8476174;28;20054;-70
2022/01/10 10:21:19;;;;;;;127.32;40.75;;;;;;;2.19;75.74;99487.81;8495658;28;20057;-70
2022/01/10 10:25:20;;;;;;;106.15;37.60;;;;;;;2.19;75.73;99493.16;8498951;27;20502;-71
2022/01/10 10:29:21;;;;;;;122.50;42.03;;;;;;;2.21;75.18;99507.03;8483987;27;20051;-69
2022/01/10 10:33:23;;;;;;;133.73;44.80;;;;;;;2.29;74.32;99509.28;8502406;27;20087;-70
2022/01/10 10:37:27;;;;;;;123.10;44.13;;;;;;;2.26;74.88;99515.94;8502031;27;20047;-71
2022/01/10 10:41:28;;;;;;;124.28;41.55;;;;;;;2.31;74.52;99518.66;8502230;27;20054;-70
2022/01/10 10:45:29;;;;;;;99.60;36.78;;;;;;;2.43;74.79;99521.22;8501875;27;20047;-70
2022/01/10 10:49:34;;;;;;;107.07;37.30;;;;;;;2.48;73.51;99534.63;8501828;27;20460;-70
2022/01/10 10:53:37;;;;;;;95.75;37.05;;;;;;;2.53;73.80;99538.19;8498536;27;20521;-70
2022/01/10 10:57:38;;;;;;;85.60;32.53;;;;;;;2.58;72.85;99550.75;8501624;27;20100;-69
2022/01/10 11:01:41;;;;;;;86.43;33.25;;;;;;;2.61;71.40;99566.25;8483614;27;20039;-69
2022/01/10 11:05:44;;;;;;;100.43;35.90;;;;;;;2.57;71.60;99559.81;8501197;27;20134;-69
2022/01/10 11:09:46;;;;;;;95.72;33.65;;;;;;;2.59;70.47;99568.38;8462927;28;20040;-70
2022/01/10 11:13:48;;;;;;;96.50;34.95;;;;;;;2.54;69.65;99576.28;8466978;28;20074;-69
2022/01/10 11:17:49;;;;;;;106.38;36.20;;;;;;;2.55;70.30;99589.38;8449084;28;20085;-70
2022/01/10 11:21:53;;;;;;;98.38;37.03;;;;;;;2.59;69.50;99599.56;8467120;28;20086;-69
2022/01/10 11:25:57;;;;;;;106.32;36.60;;;;;;;2.54;69.24;99597.63;8430990;28;20509;-70
2022/01/10 11:29:58;;;;;;;90.28;34.35;;;;;;;2.51;69.33;99608.78;8466941;28;20494;-69
2022/01/10 11:33:59;;;;;;;97.13;33.38;;;;;;;2.47;68.02;99607.66;8489700;27;20054;-70
2022/01/10 11:38:15;;;;;;;99.45;34.63;;;;;;;2.40;67.82;99607.00;8499224;27;20565;-69
2022/01/10 11:42:21;;;;;;;128.65;47.75;;;;;;;2.31;68.81;99608.47;8500082;27;20418;-70
2022/01/10 11:46:30;;;;;;;134.43;47.38;;;;;;;2.28;69.65;99624.94;8472623;27;20048;-70
2022/01/10 11:50:31;;;;;;;150.65;50.55;;;;;;;2.25;70.25;99630.75;8494857;27;20043;-70
2022/01/10 11:54:35;;;;;;;141.30;48.42;;;;;;;2.23;70.68;99638.16;8481656;27;20486;-70
2022/01/10 11:58:36;;;;;;;128.07;46.30;;;;;;;2.24;70.80;99645.13;8499400;27;20054;-70
2022/01/10 12:02:37;;;;;;;116.07;43.17;;;;;;;2.28;70.63;99648.91;8481333;27;20059;-70
2022/01/10 12:06:38;;;;;;;134.25;46.00;;;;;;;2.27;70.44;99649.97;8499436;27;20486;-70
2022/01/10 12:10:39;;;;;;;136.35;48.67;;;;;;;2.16;70.40;99664.19;8499138;27;20055;-70
2022/01/10 12:14:42;;;;;;;145.45;49.63;;;;;;;2.00;70.63;99677.25;8449575;28;20056;-70
2022/01/10 12:18:42;;;;;;;184.43;62.30;;;;;;;1.96;70.77;99686.72;8465246;28;20055;-69
2022/01/10 12:22:43;;;;;;;177.55;64.10;;;;;;;1.95;70.32;99695.78;8464662;28;20492;-69
2022/01/10 12:26:44;;;;;;;146.60;51.13;;;;;;;1.91;70.28;99705.28;8411775;28;20407;-71
2022/01/10 12:30:45;;;;;;;147.02;51.92;;;;;;;1.77;70.85;99709.28;8464315;28;20127;-69
2022/01/10 12:34:46;;;;;;;143.68;50.67;;;;;;;1.72;70.71;99717.16;8446371;28;20052;-70
2022/01/10 12:38:59;;;;;;;143.85;49.72;;;;;;;1.72;70.98;99722.50;8464845;28;20048;-70
2022/01/10 12:43:00;;;;;;;132.98;47.95;;;;;;;1.68;70.98;99732.81;8446349;28;20049;-70
2022/01/10 12:47:01;;;;;;;140.25;49.65;;;;;;;1.61;70.73;99741.97;8463706;28;20063;-70
2022/01/10 12:51:04;;;;;;;142.15;50.28;;;;;;;1.64;70.47;99758.25;8463956;28;20514;-69
2022/01/10 12:55:06;;;;;;;129.57;49.03;;;;;;;1.65;70.70;99759.06;8464139;28;20048;-69
2022/01/10 12:59:07;;;;;;;142.20;51.00;;;;;;;1.70;70.58;99767.16;8463631;28;20039;-69
2022/01/10 13:03:07;;;;;;;133.80;48.83;;;;;;;1.80;70.48;99772.69;8463322;28;20044;-69
2022/01/10 13:07:11;;;;;;;133.38;50.13;;;;;;;1.92;70.58;99776.16;8463431;28;20559;-70
2022/01/10 13:11:17;;;;;;;160.63;54.53;;;;;;;1.98;70.39;99791.19;8432032;28;20050;-71
2022/01/10 13:15:17;;;;;;;143.25;51.10;;;;;;;1.95;70.09;99807.66;8462947;28;20055;-70
2022/01/10 13:19:27;;;;;;;134.48;50.10;;;;;;;1.92;69.94;99802.78;8463519;28;20101;-70
2022/01/10 13:23:33;;;;;;;139.32;52.70;;;;;;;1.89;69.85;99805.94;8462846;28;20126;-70
2022/01/10 13:27:36;;;;;;;146.18;51.10;;;;;;;1.82;69.84;99826.56;8410042;28;20043;-70
2022/01/10 13:31:37;;;;;;;134.10;47.95;;;;;;;1.73;70.07;99835.94;8462518;28;20454;-69
2022/01/10 13:35:39;;;;;;;133.45;47.38;;;;;;;1.67;69.97;99843.03;8464173;27;20174;-69
2022/01/10 13:39:39;;;;;;;119.65;46.15;;;;;;;1.51;70.06;99853.56;8496454;27;20069;-70
2022/01/10 13:43:41;;;;;;;127.63;47.30;;;;;;;1.44;70.70;99863.50;8442822;27;20047;-70
2022/01/10 13:47:54;;;;;;;128.30;45.78;;;;;;;1.35;70.49;99870.19;8496098;27;20051;-70
2022/01/10 13:52:14;;;;;;;138.57;48.38;;;;;;;1.24;70.21;99874.47;8496226;27;20073;-69
2022/01/10 13:56:25;;;;;;;140.50;48.80;;;;;;;1.20;70.47;99890.09;8495777;27;20134;-70
2022/01/10 14:00:26;;;;;;;130.95;48.55;;;;;;;1.11;70.76;99902.06;8495185;27;20529;-70
2022/01/10 14:04:31;;;;;;;134.15;47.97;;;;;;;1.01;70.54;99896.50;8477458;27;20108;-70
2022/01/10 14:08:33;;;;;;;132.68;46.30;;;;;;;0.84;70.99;99901.69;8485303;27;20055;-70
2022/01/10 14:12:34;;;;;;;133.60;48.05;;;;;;;0.79;71.12;99914.03;8443866;28;20051;-70
2022/01/10 14:16:39;;;;;;;133.45;48.65;;;;;;;0.65;71.62;99917.88;8461522;28;20043;-70
2022/01/10 14:20:39;;;;;;;138.40;49.97;;;;;;;0.52;72.02;99939.31;8461199;28;20121;-70
2022/01/10 14:24:40;;;;;;;141.13;48.30;;;;;;;0.41;72.16;99941.69;8461885;28;20040;-69
2022/01/10 14:28:43;;;;;;;135.40;49.53;;;;;;;0.31;72.14;99944.06;8461872;28;20138;-69
2022/01/10 14:32:44;;;;;;;141.73;49.88;;;;;;;0.25;72.58;99944.94;8461169;28;20067;-69
2022/01/10 14:36:45;;;;;;;150.27;51.85;;;;;;;0.16;72.92;99967.50;8461543;28;20051;-70
2022/01/10 14:40:47;;;;;;;155.10;55.38;;;;;;;0.03;73.50;99975.59;8426670;28;20055;-70
2022/01/10 14:44:48;;;;;;;161.00;57.50;;;;;;;-0.09;73.32;99982.66;8461129;28;20052;-69
2022/01/10 14:48:49;;;;;;;157.98;55.97;;;;;;;-0.16;74.43;99984.56;8461039;28;20563;-70
2022/01/10 14:52:50;;;;;;;169.65;58.40;;;;;;;-0.27;74.47;99995.88;8461562;28;20461;-71
2022/01/10 14:56:51;;;;;;;175.00;60.22;;;;;;;-0.44;75.22;100009.69;8460726;28;20047;-70
2022/01/10 15:00:51;;;;;;;166.35;55.83;;;;;;;-0.53;75.12;100015.47;8461104;28;20044;-69
2022/01/10 15:04:52;;;;;;;170.35;58.45;;;;;;;-0.57;75.48;100015.06;8461115;28;20434;-70
2022/01/10 15:08:53;;;;;;;175.45;60.75;;;;;;;-0.73;75.97;100026.19;8460608;28;20358;-69
2022/01/10 15:12:54;;;;;;;187.82;63.53;;;;;;;-0.79;76.78;100024.38;8464870;28;20056;-69
2022/01/10 15:16:54;;;;;;;204.25;75.57;;;;;;;-0.91;76.84;100039.34;8479982;27;20403;-69
2022/01/10 15:20:55;;;;;;;198.15;67.63;;;;;;;-0.99;77.60;100053.66;8501059;27;20515;-70
2022/01/10 15:24:57;;;;;;;202.57;69.18;;;;;;;-1.14;78.37;100060.25;8500897;27;20086;-69
2022/01/10 15:28:58;;;;;;;208.32;65.38;;;;;;;-1.22;78.79;100076.41;8500825;27;20399;-69
2022/01/10 15:32:59;;;;;;;205.63;69.68;;;;;;;-1.35;79.00;100086.00;8464065;27;20047;-69
2022/01/10 15:37:01;;;;;;;198.13;67.05;;;;;;;-1.43;79.38;100094.16;8482167;27;20050;-70
2022/01/10 15:41:02;;;;;;;199.30;65.10;;;;;;;-1.47;79.40;100103.53;8500289;27;20051;-69
2022/01/10 15:45:04;;;;;;;208.30;66.95;;;;;;;-1.56;79.67;100115.38;8500180;27;20096;-70
2022/01/10 15:49:05;;;;;;;199.60;62.10;;;;;;;-1.64;79.89;100112.97;8500017;27;20047;-69
2022/01/10 15:53:06;;;;;;;216.20;65.85;;;;;;;-1.73;80.22;100119.47;8481683;27;20043;-69
2022/01/10 15:57:07;;;;;;;209.60;64.28;;;;;;;-1.79;80.38;100125.56;8481444;27;20071;-69
2022/01/10 16:01:08;;;;;;;204.52;62.97;;;;;;;-1.87;80.52;100133.72;8499963;27;20062;-69
2022/01/10 16:05:10;;;;;;;220.95;64.80;;;;;;;-1.89;80.70;100141.84;8485455;27;20051;-70
2022/01/10 16:09:11;;;;;;;207.68;63.25;;;;;;;-1.80;81.17;100155.72;8476565;27;20118;-69
2022/01/10 16:13:15;;;;;;;203.82;63.20;;;;;;;-1.78;80.57;100146.56;8469630;27;20184;-69
2022/01/10 16:17:15;;;;;;;206.65;60.63;;;;;;;-1.76;80.73;100164.91;8431242;27;20047;-69
2022/01/10 16:21:17;;;;;;;187.43;58.53;;;;;;;-1.80;80.86;100171.63;8496409;27;20557;-68
2022/01/10 16:25:18;;;;;;;184.43;54.92;;;;;;;-1.75;81.12;100174.47;8497900;27;20051;-69
2022/01/10 16:29:19;;;;;;;196.35;59.00;;;;;;;-1.76;80.93;100183.44;8485941;27;20122;-70
2022/01/10 16:33:20;;;;;;;222.13;65.22;;;;;;;-1.72;80.81;100192.59;8465995;28;20051;-69
2022/01/10 16:37:20;;;;;;;175.43;52.55;;;;;;;-1.66;80.91;100194.44;8474963;27;20532;-69
2022/01/10 16:41:21;;;;;;;161.77;52.15;;;;;;;-1.61;80.65;100212.38;8489223;27;20046;-69
2022/01/10 16:45:26;;;;;;;263.60;66.38;;;;;;;-1.60;81.17;100230.72;8499654;27;20050;-70
2022/01/10 16:49:27;;;;;;;196.65;58.40;;;;;;;-1.58;80.73;100249.03;8494894;27;20137;-70
2022/01/10 16:53:32;;;;;;;163.00;50.95;;;;;;;-1.67;80.97;100251.06;8449359;27;20047;-69
2022/01/10 16:57:33;;;;;;;169.88;51.83;;;;;;;-1.65;80.69;100264.94;8463659;27;20043;-69
2022/01/10 17:01:34;;;;;;;168.88;48.78;;;;;;;-1.70;80.35;100272.66;8478193;27;20527;-68
2022/01/10 17:05:36;;;;;;;159.60;50.28;;;;;;;-1.79;80.59;100274.66;8439911;27;20104;-71
2022/01/10 17:09:37;;;;;;;213.02;58.55;;;;;;;-1.78;80.93;100275.50;8434061;28;20494;-70
2022/01/10 17:13:38;;;;;;;177.07;55.35;;;;;;;-1.81;81.10;100291.78;8471947;27;20035;-69
2022/01/10 17:17:39;;;;;;;188.60;57.97;;;;;;;-1.81;81.09;100299.72;8462505;27;20501;-70
2022/01/10 17:21:40;;;;;;;158.35;49.53;;;;;;;-1.78;81.41;100308.09;8479307;27;20047;-70
2022/01/10 17:25:41;;;;;;;161.90;48.47;;;;;;;-1.71;81.05;100314.22;8480071;27;20120;-70
2022/01/10 17:29:42;;;;;;;141.85;45.45;;;;;;;-1.71;80.73;100319.53;8409654;28;20052;-70
2022/01/10 17:33:43;;;;;;;156.23;51.42;;;;;;;-1.76;81.17;100326.44;8461614;28;20048;-70
2022/01/10 17:37:44;;;;;;;149.38;46.20;;;;;;;-1.78;80.93;100339.88;8471141;27;20052;-70
2022/01/10 17:41:45;;;;;;;189.52;52.63;;;;;;;-1.78;81.51;100347.00;8478888;27;20071;-70
2022/01/10 17:45:46;;;;;;;146.68;44.45;;;;;;;-1.80;81.19;100349.03;8422975;27;20069;-70
2022/01/10 17:49:53;;;;;;;190.82;53.15;;;;;;;-1.90;81.58;100356.50;8425168;28;20055;-69
2022/01/10 17:53:54;;;;;;;162.30;48.42;;;;;;;-1.88;81.44;100370.38;8489038;27;20039;-71
2022/01/10 17:57:54;;;;;;;177.57;49.03;;;;;;;-1.89;81.87;100379.31;8492405;27;20116;-70
2022/01/10 18:01:55;;;;;;;189.90;51.72;;;;;;;-1.90;81.59;100382.97;8439521;27;20047;-70
2022/01/10 18:05:56;;;;;;;162.45;45.50;;;;;;;-1.86;81.81;100397.47;8488396;27;20051;-70
2022/01/10 18:09:57;;;;;;;164.35;45.20;;;;;;;-1.81;81.85;100400.34;8467331;28;20073;-71
2022/01/10 18:13:58;;;;;;;142.85;40.78;;;;;;;-1.90;82.06;100409.47;8492937;27;20146;-70
2022/01/10 18:18:00;;;;;;;160.95;43.67;;;;;;;-1.91;82.15;100413.97;8487873;28;20077;-70
2022/01/10 18:22:01;;;;;;;181.57;51.00;;;;;;;-1.91;82.32;100423.72;8457412;28;20039;-71
2022/01/10 18:26:02;;;;;;;147.95;41.95;;;;;;;-1.99;82.39;100431.81;8404503;28;20050;-71
2022/01/10 18:30:05;;;;;;;152.45;44.25;;;;;;;-1.95;82.51;100430.41;8454327;28;20134;-71
2022/01/10 18:34:06;;;;;;;149.48;39.65;;;;;;;-1.93;82.76;100441.63;8469796;28;20054;-69
2022/01/10 18:38:08;;;;;;;147.73;43.40;;;;;;;-1.90;82.71;100441.22;8440029;28;20134;-70
2022/01/10 18:42:09;;;;;;;157.85;45.20;;;;;;;-1.85;82.74;100434.34;8459731;28;20054;-73
2022/01/10 18:46:12;;;;;;;155.88;44.85;;;;;;;-1.79;82.34;100453.91;8469024;27;20047;-70